Terminal Aerodrome Forecast
Issued by NWS

Home | Current Version | Previous Version | Text Only | Print | Product List | Glossary On
Versions: 1 2 3 4 5 6 7 8 9 10 11 12 13 14 15 16 17 18 19 20 21
000
FTAK31 PAJN 110537
TAFAYA
TAF
PAYA 110537Z 1106/1206 09016G26KT 5SM RA BR BKN015 OVC030
      WS020/13060KT
     FM111500 15010KT 6SM -RA SCT015 OVC035
     FM120000 10005KT P6SM VCSH SCT040 BKN080
      AMD LTD TO CLD VIS AND WIND=

USA.gov is the U.S. government's official web portal to all federal, state and local government web resources and services.